METAR Data
IDs: Format: Raw Decoded Include TAF

Data at: 1205 UTC 17 Dec 2018

KEFD 171150Z 00000KT 10SM BKN160 OVC250 12/11 A3027

TAF KEFD 171200Z 1712/1818 VRB06KT 8000 BR BKN150 QNH3022INS
  BECMG 1715/1716 21006KT 9999 NSW SCT150 QNH3013INS
  BECMG 1808/1809 VRB06KT 8000 BR BKN020 QNH3008INS TX20/1721Z TN09/1712Z